Comins, Michigan
Current Conditions -  °F | °C
As of 9:54 PM on Monday 26 Jan 2015 (Local Time) from KAPN Reporting Station
Overcast Overcast  
Wind Chill: 10°   Ceiling: 3200
Heat Index: 19°   Visibility: 10mi
Dew Point: 11°   Wind: 7mph
Humidity: 71%   Direction: 80°E
Pressure: 30.03"   Gusts: NA
Location:  44.8°N, 84.04°W
Report Text: KAPN 270254Z AUTO 08006KT 10SM OVC032 M07/M12 A3003 RMK AO2 SLP186 60000 T10721117 53005
Loading
Personal Weather Stations






























Interactive Weather Map New forecast layout! Learn more

10-Day Weather Forecast

Advertisements
Track Severe Weather on mobile